createdAt,value
2022-10-08T00:01:44.601Z,11.57
2022-10-08T00:03:49.388Z,11.43
2022-10-08T00:06:04.696Z,12.65
2022-10-08T00:08:08.165Z,12.80
2022-10-08T00:10:10.748Z,12.70
2022-10-08T00:12:13.323Z,12.40
2022-10-08T00:14:15.892Z,11.63
2022-10-08T00:16:21.606Z,12.05
2022-10-08T00:18:25.642Z,12.15
2022-10-08T00:20:28.243Z,12.70
2022-10-08T00:22:30.826Z,13.55
2022-10-08T00:24:33.496Z,14.00
2022-10-08T00:26:43.322Z,14.30
2022-10-08T00:28:47.939Z,13.25
2022-10-08T00:30:50.530Z,15.15
2022-10-08T00:32:57.697Z,14.13
2022-10-08T00:35:04.101Z,14.13
2022-10-08T00:37:06.657Z,14.15
2022-10-08T00:39:12.265Z,14.32
2022-10-08T00:41:20.733Z,14.40
2022-10-08T00:43:39.167Z,13.48
2022-10-08T00:45:42.681Z,13.25
2022-10-08T00:47:47.627Z,12.70
2022-10-08T00:49:51.416Z,13.13
2022-10-08T00:51:57.314Z,13.48
2022-10-08T00:54:02.113Z,13.30
2022-10-08T00:56:05.176Z,13.20
2022-10-08T00:58:13.568Z,13.07
2022-10-08T01:00:19.615Z,13.32
2022-10-08T01:02:22.319Z,12.13
2022-10-08T01:04:25.153Z,13.00
2022-10-08T01:06:29.902Z,12.50
2022-10-08T01:08:41.625Z,12.80
2022-10-08T01:10:53.897Z,12.15
2022-10-08T01:13:09.178Z,12.32
2022-10-08T01:15:23.494Z,12.57
2022-10-08T01:17:35.056Z,12.05
2022-10-08T01:20:04.876Z,12.93
2022-10-08T01:22:22.799Z,12.95
2022-10-08T01:24:58.489Z,13.23
2022-10-08T01:27:05.709Z,13.27
2022-10-08T01:29:18.129Z,13.02
2022-10-08T01:31:24.874Z,12.80
2022-10-08T01:33:32.969Z,13.02
2022-10-08T01:35:37.796Z,13.40
2022-10-08T01:37:44.091Z,13.18
2022-10-08T01:39:49.182Z,13.18
2022-10-08T01:41:56.337Z,12.73
2022-10-08T01:44:04.502Z,13.07
2022-10-08T01:46:17.382Z,12.25
2022-10-08T01:48:24.351Z,12.68
2022-10-08T01:50:32.820Z,13.18
2022-10-08T01:52:41.642Z,12.82
2022-10-08T01:54:46.978Z,12.68
2022-10-08T01:56:51.636Z,13.13
2022-10-08T01:58:56.918Z,12.35
2022-10-08T02:01:06.076Z,13.20
2022-10-08T02:03:12.046Z,12.35
2022-10-08T02:05:14.679Z,12.88
2022-10-08T02:07:19.460Z,12.00
2022-10-08T02:09:23.880Z,12.10
2022-10-08T02:11:26.477Z,12.25
2022-10-08T02:13:30.427Z,11.35
2022-10-08T02:15:39.547Z,12.88
2022-10-08T02:17:54.676Z,11.95
2022-10-08T02:20:04.689Z,11.73
2022-10-08T02:22:07.892Z,11.77
2022-10-08T02:24:18.328Z,11.32
2022-10-08T02:26:26.555Z,11.57
2022-10-08T02:28:35.874Z,11.13
2022-10-08T02:30:44.278Z,12.02
2022-10-08T02:32:52.442Z,11.93
2022-10-08T02:34:58.607Z,11.75
2022-10-08T02:37:07.391Z,12.27
2022-10-08T02:39:12.204Z,11.70
2022-10-08T02:41:16.539Z,11.65
2022-10-08T02:43:22.774Z,11.30
2022-10-08T02:45:30.150Z,11.98
2022-10-08T02:47:37.711Z,11.25
2022-10-08T02:49:44.195Z,11.52
2022-10-08T02:51:51.006Z,10.45
2022-10-08T02:53:55.147Z,10.73
2022-10-08T02:56:09.394Z,11.70
2022-10-08T02:58:13.619Z,11.40
2022-10-08T03:00:16.335Z,10.73
2022-10-08T03:02:27.657Z,11.32
2022-10-08T03:04:36.709Z,11.13
2022-10-08T03:06:40.877Z,10.20
2022-10-08T03:08:49.096Z,11.27
2022-10-08T03:10:53.663Z,10.65
2022-10-08T03:13:01.489Z,11.02
2022-10-08T03:15:04.605Z,10.27
2022-10-08T03:17:08.618Z,11.82
2022-10-08T03:19:13.711Z,10.68
2022-10-08T03:21:16.980Z,10.32
2022-10-08T03:23:20.387Z,10.80
2022-10-08T03:25:22.962Z,11.50
2022-10-08T03:27:26.914Z,9.63
2022-10-08T03:29:29.465Z,10.77
2022-10-08T03:31:32.138Z,10.13
2022-10-08T03:33:35.098Z,10.45
2022-10-08T03:35:37.653Z,10.38
2022-10-08T03:37:40.857Z,9.57
2022-10-08T03:39:43.704Z,10.85
2022-10-08T03:41:46.264Z,10.40
2022-10-08T03:43:50.205Z,10.07
2022-10-08T03:45:54.486Z,10.15
2022-10-08T03:47:57.093Z,9.98
2022-10-08T03:49:59.981Z,11.00
2022-10-08T03:52:02.552Z,10.20
2022-10-08T03:54:05.406Z,10.02
2022-10-08T03:56:11.742Z,10.27
2022-10-08T03:58:14.803Z,10.88
2022-10-08T04:00:18.964Z,10.65
2022-10-08T04:02:21.643Z,11.75
2022-10-08T04:04:25.694Z,11.95
2022-10-08T04:06:28.631Z,13.27
2022-10-08T04:08:31.233Z,11.30
2022-10-08T04:10:33.770Z,11.60
2022-10-08T04:12:36.325Z,12.23
2022-10-08T04:14:38.879Z,14.60
2022-10-08T04:16:42.780Z,14.15
2022-10-08T04:18:45.994Z,14.05
2022-10-08T04:20:48.552Z,14.45
2022-10-08T04:22:51.224Z,15.85
2022-10-08T04:24:53.785Z,16.30
2022-10-08T04:26:56.317Z,15.10
2022-10-08T04:28:58.889Z,14.05
2022-10-08T04:31:03.723Z,15.23
2022-10-08T04:33:07.694Z,14.73
2022-10-08T04:35:10.607Z,15.07
2022-10-08T04:37:13.213Z,14.27
2022-10-08T04:39:15.805Z,13.48
2022-10-08T04:41:20.651Z,13.68
2022-10-08T04:43:23.199Z,15.98
2022-10-08T04:45:25.760Z,14.57
2022-10-08T04:47:28.374Z,14.20
2022-10-08T04:49:32.301Z,14.65
2022-10-08T04:51:34.934Z,14.55
2022-10-08T04:53:37.582Z,14.50
2022-10-08T04:55:40.175Z,13.57
2022-10-08T04:57:42.712Z,14.35
2022-10-08T05:00:06.151Z,13.57
2022-10-08T05:02:08.110Z,13.65
2022-10-08T05:04:10.764Z,14.65
2022-10-08T05:06:16.485Z,13.57
2022-10-08T05:08:19.026Z,13.20
2022-10-08T05:10:21.797Z,12.40
2022-10-08T05:12:24.375Z,13.52
2022-10-08T05:14:27.065Z,12.82
2022-10-08T05:16:29.703Z,13.20
2022-10-08T05:18:33.271Z,13.20
2022-10-08T05:20:37.111Z,12.50
2022-10-08T05:22:41.023Z,11.63
2022-10-08T05:24:43.584Z,12.73
2022-10-08T05:26:58.511Z,12.95
2022-10-08T05:29:01.867Z,12.95
2022-10-08T05:31:04.530Z,13.10
2022-10-08T05:33:07.142Z,12.05
2022-10-08T05:35:09.969Z,12.20
2022-10-08T05:37:12.567Z,11.95
2022-10-08T05:39:16.736Z,12.30
2022-10-08T05:41:21.604Z,12.15
2022-10-08T05:43:24.293Z,11.75
2022-10-08T05:45:26.966Z,11.80
2022-10-08T05:47:29.597Z,11.70
2022-10-08T05:49:32.632Z,12.65
2022-10-08T05:51:36.182Z,11.45
2022-10-08T05:53:40.554Z,12.43
2022-10-08T05:55:44.795Z,12.43
2022-10-08T05:57:47.384Z,12.77
2022-10-08T05:59:49.984Z,13.77
2022-10-08T06:01:53.063Z,12.52
2022-10-08T06:03:58.623Z,13.15
2022-10-08T06:06:04.070Z,12.88
2022-10-08T06:08:06.648Z,12.27
2022-10-08T06:10:09.888Z,11.40
2022-10-08T06:12:14.064Z,10.75
2022-10-08T06:14:17.824Z,12.70
2022-10-08T06:16:21.057Z,13.30
2022-10-08T06:18:24.208Z,13.38
2022-10-08T06:20:31.641Z,12.35
2022-10-08T06:22:34.620Z,13.30
2022-10-08T06:24:39.995Z,13.70
2022-10-08T06:26:44.057Z,13.63
2022-10-08T06:28:47.977Z,14.38
2022-10-08T06:30:50.528Z,13.05
2022-10-08T06:32:53.090Z,13.07
2022-10-08T06:34:55.816Z,12.65
2022-10-08T06:36:58.423Z,12.40
2022-10-08T06:39:02.945Z,13.90
2022-10-08T06:41:05.685Z,13.70
2022-10-08T06:43:11.225Z,14.38
2022-10-08T06:45:15.264Z,13.00
2022-10-08T06:47:17.825Z,14.27
2022-10-08T06:49:22.109Z,14.90
2022-10-08T06:51:24.705Z,14.73
2022-10-08T06:53:27.313Z,14.70
2022-10-08T06:55:30.189Z,15.35
2022-10-08T06:57:32.800Z,15.10
2022-10-08T06:59:35.430Z,14.35
2022-10-08T07:01:39.469Z,14.80
2022-10-08T07:03:42.504Z,15.45
2022-10-08T07:05:45.123Z,15.93
2022-10-08T07:07:47.703Z,15.65
2022-10-08T07:09:50.267Z,14.35
2022-10-08T07:11:52.850Z,13.82
2022-10-08T07:13:56.209Z,13.30
2022-10-08T07:16:02.904Z,13.55
2022-10-08T07:18:09.324Z,14.35
2022-10-08T07:20:11.940Z,15.90
2022-10-08T07:22:14.525Z,14.35
2022-10-08T07:24:17.119Z,16.73
2022-10-08T07:26:22.284Z,17.52
2022-10-08T07:28:26.842Z,16.33
2022-10-08T07:30:29.447Z,16.83
2022-10-08T07:32:32.017Z,16.40
2022-10-08T07:34:36.106Z,15.80
2022-10-08T07:36:39.618Z,15.02
2022-10-08T07:38:43.229Z,15.43
2022-10-08T07:40:46.651Z,15.57
2022-10-08T07:42:49.553Z,16.60
2022-10-08T07:44:52.579Z,15.40
2022-10-08T07:46:55.127Z,16.25
2022-10-08T07:48:59.222Z,14.90
2022-10-08T07:51:09.320Z,16.08
2022-10-08T07:53:14.686Z,16.00
2022-10-08T07:55:17.398Z,14.52
2022-10-08T07:57:20.267Z,14.02
2022-10-08T07:59:23.002Z,13.85
2022-10-08T08:01:29.425Z,13.95
2022-10-08T08:03:32.070Z,13.45
2022-10-08T08:05:36.059Z,14.27
2022-10-08T08:07:40.007Z,13.02
2022-10-08T08:09:42.571Z,14.02
2022-10-08T08:11:46.284Z,14.57
2022-10-08T08:13:48.990Z,13.48
2022-10-08T08:15:57.350Z,14.02
2022-10-08T08:17:59.952Z,13.18
2022-10-08T08:20:02.568Z,13.98
2022-10-08T08:22:05.161Z,13.82
2022-10-08T08:24:11.865Z,14.95
2022-10-08T08:26:16.578Z,14.68
2022-10-08T08:28:19.239Z,13.80
2022-10-08T08:30:21.923Z,13.02
2022-10-08T08:32:28.366Z,12.02
2022-10-08T08:34:31.270Z,11.27
2022-10-08T08:36:36.294Z,12.32
2022-10-08T08:38:39.808Z,11.30
2022-10-08T08:40:43.831Z,12.90
2022-10-08T08:42:54.384Z,11.50
2022-10-08T08:45:00.555Z,11.10
2022-10-08T08:47:07.163Z,9.93
2022-10-08T08:49:20.108Z,10.02
2022-10-08T08:51:22.747Z,9.15
2022-10-08T08:53:25.686Z,9.73
2022-10-08T08:55:37.864Z,10.35
2022-10-08T08:57:53.292Z,9.65
2022-10-08T08:59:58.052Z,9.90
2022-10-08T09:02:04.672Z,9.50
2022-10-08T09:04:16.985Z,10.32
2022-10-08T09:06:23.047Z,8.52
2022-10-08T09:08:31.856Z,8.60
2022-10-08T09:10:41.098Z,7.55
2022-10-08T09:12:45.463Z,7.18
2022-10-08T09:14:54.371Z,7.55
2022-10-08T09:16:58.386Z,6.70
2022-10-08T09:19:01.002Z,6.72
2022-10-08T09:21:03.631Z,6.18
2022-10-08T09:23:14.005Z,6.72
2022-10-08T09:25:18.879Z,6.03
2022-10-08T09:27:21.480Z,6.47
2022-10-08T09:29:34.534Z,6.00
2022-10-08T09:31:43.420Z,6.55
2022-10-08T09:33:47.071Z,6.68
2022-10-08T09:35:51.776Z,6.32
2022-10-08T09:37:56.402Z,6.55
2022-10-08T09:40:24.184Z,6.68
2022-10-08T09:42:26.766Z,6.47
2022-10-08T09:44:42.352Z,6.95
2022-10-08T09:46:45.608Z,6.72
2022-10-08T09:48:48.262Z,6.80
2022-10-08T09:51:03.659Z,7.25
2022-10-08T09:53:06.975Z,6.97
2022-10-08T09:55:17.777Z,6.68
2022-10-08T09:57:22.012Z,6.95
2022-10-08T09:59:27.179Z,6.25
2022-10-08T10:01:32.688Z,5.13
2022-10-08T10:03:37.441Z,5.25
2022-10-08T10:05:41.139Z,4.78
2022-10-08T10:07:46.034Z,5.05
2022-10-08T10:09:53.324Z,6.28
2022-10-08T10:12:02.396Z,5.00
2022-10-08T10:14:13.878Z,5.63
2022-10-08T10:16:23.268Z,4.45
2022-10-08T10:18:33.053Z,4.97
2022-10-08T10:20:40.648Z,5.28
2022-10-08T10:22:52.570Z,5.45
2022-10-08T10:25:02.940Z,5.05
2022-10-08T10:27:11.623Z,5.97
2022-10-08T10:29:18.842Z,5.15
2022-10-08T10:31:28.565Z,5.60
2022-10-08T10:33:35.872Z,4.57
2022-10-08T10:35:45.419Z,5.00
2022-10-08T10:37:53.300Z,4.50
2022-10-08T10:40:09.404Z,4.00
2022-10-08T10:42:19.623Z,4.82
2022-10-08T10:44:27.746Z,4.65
2022-10-08T10:46:37.163Z,4.03
2022-10-08T10:48:41.246Z,4.70
2022-10-08T10:50:52.152Z,3.95
2022-10-08T10:53:05.191Z,4.77
2022-10-08T10:55:21.838Z,4.75
2022-10-08T10:57:40.688Z,4.30
2022-10-08T10:59:47.298Z,3.95
2022-10-08T11:01:56.417Z,4.13
2022-10-08T11:04:09.433Z,4.28
2022-10-08T11:06:36.519Z,3.90
2022-10-08T11:08:45.731Z,3.40
2022-10-08T11:11:01.436Z,3.72
2022-10-08T11:13:13.476Z,4.00
2022-10-08T11:15:27.841Z,3.40
2022-10-08T11:17:48.240Z,4.07
2022-10-08T11:20:02.240Z,3.80
2022-10-08T11:22:13.117Z,4.72
2022-10-08T11:24:37.764Z,4.00
2022-10-08T11:26:49.474Z,3.60
2022-10-08T11:29:01.102Z,3.67
2022-10-08T11:31:14.435Z,3.90
2022-10-08T11:33:18.231Z,4.05
2022-10-08T11:35:28.994Z,3.50
2022-10-08T11:37:39.022Z,3.42
2022-10-08T11:39:53.388Z,3.90
2022-10-08T11:42:00.802Z,3.70
2022-10-08T11:44:05.310Z,3.67
2022-10-08T11:46:22.549Z,3.75
2022-10-08T11:48:32.309Z,4.28
2022-10-08T11:50:37.992Z,3.42
2022-10-08T11:52:40.689Z,2.85
2022-10-08T11:54:55.119Z,3.42
2022-10-08T11:57:14.346Z,3.25
2022-10-08T11:59:32.767Z,3.40
2022-10-08T12:01:49.426Z,2.95
2022-10-08T12:04:04.957Z,3.13
2022-10-08T12:06:20.686Z,2.47
2022-10-08T12:08:52.706Z,2.60
2022-10-08T12:10:55.239Z,2.38
2022-10-08T12:13:29.876Z,2.53
2022-10-08T12:15:52.783Z,2.67
2022-10-08T12:17:57.664Z,2.70
2022-10-08T12:20:20.001Z,2.83
2022-10-08T12:23:00.042Z,2.35
2022-10-08T12:25:04.774Z,2.50
2022-10-08T12:27:37.788Z,2.13
2022-10-08T12:29:54.710Z,2.40
2022-10-08T12:32:02.968Z,2.55
2022-10-08T12:34:18.446Z,2.55
2022-10-08T12:36:30.616Z,2.70
2022-10-08T12:38:44.991Z,2.70
2022-10-08T12:40:59.692Z,2.20
2022-10-08T12:43:17.940Z,2.67
2022-10-08T12:45:26.907Z,3.17
2022-10-08T12:47:41.615Z,2.60
2022-10-08T12:49:49.447Z,3.10
2022-10-08T12:52:02.026Z,2.10
2022-10-08T12:54:06.251Z,2.60
2022-10-08T12:56:09.104Z,3.15
2022-10-08T12:58:17.356Z,2.58
2022-10-08T13:00:23.972Z,2.70
2022-10-08T13:02:29.184Z,2.20
2022-10-08T13:04:33.892Z,2.90
2022-10-08T13:06:36.545Z,2.92
2022-10-08T13:08:40.504Z,2.90
2022-10-08T13:10:44.567Z,2.60
2022-10-08T13:13:00.033Z,2.60
2022-10-08T13:15:08.688Z,2.40
2022-10-08T13:17:30.410Z,2.70
2022-10-08T13:19:34.842Z,2.72
2022-10-08T13:21:39.363Z,2.22
2022-10-08T13:23:45.078Z,2.58
2022-10-08T13:25:49.282Z,3.15
2022-10-08T13:28:10.902Z,2.40
2022-10-08T13:30:28.660Z,2.33
2022-10-08T13:32:34.973Z,2.45
2022-10-08T13:34:43.846Z,2.63
2022-10-08T13:36:49.998Z,2.20
2022-10-08T13:38:52.781Z,2.60
2022-10-08T13:40:59.994Z,2.65
2022-10-08T13:43:02.931Z,2.33
2022-10-08T13:45:14.236Z,2.38
2022-10-08T13:47:18.978Z,2.70
2022-10-08T13:49:23.521Z,2.10
2022-10-08T13:51:26.401Z,2.10
2022-10-08T13:53:29.123Z,2.42
2022-10-08T13:55:34.565Z,2.58
2022-10-08T13:57:38.516Z,2.00
2022-10-08T13:59:41.289Z,2.28
2022-10-08T14:01:44.052Z,2.30
2022-10-08T14:03:46.704Z,2.55
2022-10-08T14:05:49.785Z,1.75
2022-10-08T14:07:57.003Z,2.13
2022-10-08T14:10:01.253Z,2.17
2022-10-08T14:12:05.354Z,2.53
2022-10-08T14:14:12.837Z,2.35
2022-10-08T14:16:15.463Z,2.65
2022-10-08T14:18:18.208Z,2.22
2022-10-08T14:20:20.939Z,2.67
2022-10-08T14:22:23.977Z,2.15
2022-10-08T14:24:26.577Z,2.50
2022-10-08T14:26:30.404Z,2.70
2022-10-08T14:28:33.023Z,2.88
2022-10-08T14:30:37.389Z,2.17
2022-10-08T14:32:40.503Z,2.08
2022-10-08T14:34:43.068Z,2.00
2022-10-08T14:36:45.808Z,2.35
2022-10-08T14:38:48.796Z,2.17
2022-10-08T14:40:51.428Z,2.05
2022-10-08T14:42:54.010Z,2.95
2022-10-08T14:44:58.719Z,2.22
2022-10-08T14:47:02.667Z,2.22
2022-10-08T14:49:05.297Z,1.85
2022-10-08T14:51:07.881Z,2.30
2022-10-08T14:53:10.458Z,1.90
2022-10-08T14:55:14.053Z,1.98
2022-10-08T14:57:16.674Z,1.95
2022-10-08T14:59:19.362Z,1.80
2022-10-08T15:01:22.243Z,2.40
2022-10-08T15:03:26.673Z,1.92
2022-10-08T15:05:29.216Z,1.50
2022-10-08T15:07:31.973Z,1.75
2022-10-08T15:09:37.080Z,1.75
2022-10-08T15:11:39.951Z,1.83
2022-10-08T15:13:42.621Z,1.48
2022-10-08T15:15:46.267Z,1.80
2022-10-08T15:17:49.189Z,1.85
2022-10-08T15:19:53.601Z,1.65
2022-10-08T15:21:56.254Z,1.83
2022-10-08T15:23:58.801Z,1.70
2022-10-08T15:26:04.210Z,1.70
2022-10-08T15:28:06.833Z,1.50
2022-10-08T15:30:10.880Z,1.70
2022-10-08T15:32:13.662Z,1.80
2022-10-08T15:34:18.222Z,1.70
2022-10-08T15:36:23.790Z,2.13
2022-10-08T15:38:26.470Z,1.65
2022-10-08T15:40:30.954Z,1.60
2022-10-08T15:42:33.745Z,1.88
2022-10-08T15:44:36.352Z,1.75
2022-10-08T15:46:39.245Z,2.10
2022-10-08T15:48:41.888Z,3.75
2022-10-08T15:50:44.433Z,3.42
2022-10-08T15:52:48.665Z,3.13
2022-10-08T15:54:51.411Z,2.65
2022-10-08T15:56:54.023Z,2.42
2022-10-08T15:58:58.323Z,3.42
2022-10-08T16:01:06.259Z,2.60
2022-10-08T16:03:08.936Z,3.17
2022-10-08T16:05:11.586Z,2.50
2022-10-08T16:07:14.161Z,2.60
2022-10-08T16:09:20.457Z,2.95
2022-10-08T16:11:24.949Z,2.97
2022-10-08T16:13:27.543Z,2.38
2022-10-08T16:15:30.381Z,2.38
2022-10-08T16:17:33.345Z,2.40
2022-10-08T16:19:38.411Z,2.25
2022-10-08T16:21:41.072Z,2.33
2022-10-08T16:23:44.416Z,2.58
2022-10-08T16:25:51.184Z,3.05
2022-10-08T16:27:53.746Z,6.75
2022-10-08T16:29:56.344Z,5.05
2022-10-08T16:31:59.392Z,5.65
2022-10-08T16:34:04.448Z,5.57
2022-10-08T16:37:13.144Z,5.10
2022-10-08T16:39:37.491Z,5.38
2022-10-08T16:41:40.226Z,5.18
2022-10-08T16:45:51.560Z,4.30
2022-10-08T16:47:54.297Z,4.55
2022-10-08T16:49:56.943Z,4.28
2022-10-08T16:52:04.584Z,4.38
2022-10-08T16:54:09.980Z,4.63
2022-10-08T16:56:12.545Z,4.03
2022-10-08T16:58:15.249Z,3.90
2022-10-08T17:00:17.855Z,3.35
2022-10-08T17:02:25.837Z,3.70
2022-10-08T17:04:30.215Z,3.50
2022-10-08T17:06:33.141Z,3.25
2022-10-08T17:08:35.776Z,3.30
2022-10-08T17:10:38.324Z,3.60
2022-10-08T17:12:41.034Z,3.58
2022-10-08T17:14:43.808Z,4.22
2022-10-08T17:16:46.515Z,3.42
2022-10-08T17:18:52.716Z,3.80
2022-10-08T17:20:56.851Z,4.28
2022-10-08T17:22:59.444Z,3.58
2022-10-08T17:25:02.030Z,3.80
2022-10-08T17:27:04.822Z,4.20
2022-10-08T17:29:10.288Z,4.28
2022-10-08T17:31:14.736Z,4.38
2022-10-08T17:33:17.336Z,5.47
2022-10-08T17:35:21.237Z,5.07
2022-10-08T17:37:23.904Z,5.90
2022-10-08T17:39:26.733Z,6.32
2022-10-08T17:41:30.882Z,5.95
2022-10-08T17:43:33.412Z,5.65
2022-10-08T17:45:36.014Z,6.03
2022-10-08T17:47:38.917Z,5.10
2022-10-08T17:49:41.483Z,4.78
2022-10-08T17:51:45.961Z,4.45
2022-10-08T17:53:52.990Z,5.63
2022-10-08T17:56:00.097Z,4.82
2022-10-08T17:58:02.771Z,6.50
2022-10-08T18:00:05.836Z,5.63
2022-10-08T18:02:09.841Z,6.47
2022-10-08T18:04:15.443Z,6.53
2022-10-08T18:06:18.277Z,6.05
2022-10-08T18:08:22.212Z,5.32
2022-10-08T18:10:24.773Z,4.82
2022-10-08T18:12:27.342Z,6.25
2022-10-08T18:14:29.957Z,6.05
2022-10-08T18:16:33.247Z,6.22
2022-10-08T18:18:36.409Z,6.60
2022-10-08T18:20:39.393Z,6.72
2022-10-08T18:22:41.984Z,6.57
2022-10-08T18:24:45.877Z,7.18
2022-10-08T18:26:48.490Z,7.82
2022-10-08T18:28:52.488Z,7.15
2022-10-08T18:30:55.107Z,7.30
2022-10-08T18:32:57.908Z,6.75
2022-10-08T18:35:00.525Z,6.65
2022-10-08T18:37:03.121Z,7.88
2022-10-08T18:39:07.064Z,8.32
2022-10-08T18:41:15.608Z,7.72
2022-10-08T18:43:18.174Z,6.85
2022-10-08T18:45:20.744Z,6.70
2022-10-08T18:47:23.341Z,8.05
2022-10-08T18:49:30.427Z,6.65
2022-10-08T18:51:34.345Z,6.43
2022-10-08T18:53:39.849Z,6.07
2022-10-08T18:55:49.190Z,5.45
2022-10-08T18:57:54.946Z,6.78
2022-10-08T18:59:57.538Z,7.07
2022-10-08T19:02:00.614Z,5.95
2022-10-08T19:04:04.721Z,6.00
2022-10-08T19:06:08.028Z,6.13
2022-10-08T19:08:10.637Z,6.63
2022-10-08T19:10:13.232Z,5.85
2022-10-08T19:12:15.821Z,6.50
2022-10-08T19:14:21.755Z,6.55
2022-10-08T19:16:24.497Z,6.65
2022-10-08T19:18:27.205Z,5.95
2022-10-08T19:20:29.804Z,5.78
2022-10-08T19:22:32.418Z,5.90
2022-10-08T19:24:39.983Z,6.63
2022-10-08T19:26:44.317Z,6.70
2022-10-08T19:28:48.511Z,6.85
2022-10-08T19:30:52.589Z,6.30
2022-10-08T19:32:55.876Z,7.55
2022-10-08T19:34:58.671Z,6.78
2022-10-08T19:37:01.348Z,7.50
2022-10-08T19:39:07.732Z,6.68
2022-10-08T19:41:11.926Z,6.72
2022-10-08T19:43:14.908Z,6.10
2022-10-08T19:45:23.833Z,6.68
2022-10-08T19:47:27.815Z,7.43
2022-10-08T19:49:30.805Z,6.57
2022-10-08T19:51:34.634Z,6.65
2022-10-08T19:53:39.237Z,6.13
2022-10-08T19:55:41.918Z,7.10
2022-10-08T19:57:44.526Z,6.03
2022-10-08T19:59:47.133Z,6.18
2022-10-08T20:01:50.248Z,6.75
2022-10-08T20:03:54.876Z,6.95
2022-10-08T20:05:57.538Z,7.10
2022-10-08T20:08:00.097Z,6.63
2022-10-08T20:10:02.699Z,6.72
2022-10-08T20:12:05.355Z,6.57
2022-10-08T20:14:08.748Z,5.75
2022-10-08T20:16:14.084Z,5.95
2022-10-08T20:18:19.380Z,6.63
2022-10-08T20:20:32.738Z,6.25
2022-10-08T20:22:36.083Z,6.43
2022-10-08T20:24:38.657Z,6.32
2022-10-08T20:26:42.857Z,6.75
2022-10-08T20:28:46.872Z,6.75
2022-10-08T20:30:49.534Z,5.70
2022-10-08T20:32:52.183Z,6.05
2022-10-08T20:34:54.862Z,5.63
2022-10-08T20:37:01.454Z,6.38
2022-10-08T20:39:04.728Z,6.10
2022-10-08T20:41:08.508Z,5.93
2022-10-08T20:43:11.075Z,6.25
2022-10-08T20:45:13.623Z,5.65
2022-10-08T20:47:16.616Z,6.07
2022-10-08T20:49:19.835Z,5.97
2022-10-08T20:51:25.469Z,6.28
2022-10-08T20:53:29.604Z,6.00
2022-10-08T20:55:32.397Z,6.10
2022-10-08T20:57:35.002Z,5.47
2022-10-08T20:59:37.648Z,5.90
2022-10-08T21:01:40.249Z,5.80
2022-10-08T21:03:44.580Z,5.57
2022-10-08T21:05:47.154Z,6.03
2022-10-08T21:07:49.775Z,5.78
2022-10-08T21:09:53.854Z,6.22
2022-10-08T21:11:56.493Z,5.55
2022-10-08T21:14:03.490Z,5.22
2022-10-08T21:16:08.834Z,5.60
2022-10-08T21:18:11.487Z,5.95
2022-10-08T21:20:14.111Z,5.05
2022-10-08T21:22:16.897Z,5.22
2022-10-08T21:24:19.760Z,5.30
2022-10-08T21:26:25.392Z,5.80
2022-10-08T21:28:27.988Z,5.75
2022-10-08T21:30:30.597Z,5.20
2022-10-08T21:32:33.305Z,5.63
2022-10-08T21:34:35.891Z,5.38
2022-10-08T21:36:40.405Z,5.47
2022-10-08T21:38:43.608Z,5.13
2022-10-08T21:40:46.152Z,4.85
2022-10-08T21:42:50.533Z,4.95
2022-10-08T21:44:53.279Z,5.18
2022-10-08T21:46:55.858Z,5.05
2022-10-08T21:49:00.402Z,5.07
2022-10-08T21:51:06.234Z,5.90
2022-10-08T21:53:08.800Z,6.88
2022-10-08T21:55:11.506Z,6.35
2022-10-08T21:57:16.306Z,6.07
2022-10-08T21:59:20.554Z,5.97
2022-10-08T22:01:25.292Z,6.10
2022-10-08T22:03:27.916Z,6.22
2022-10-08T22:05:30.476Z,4.80
2022-10-08T22:07:33.139Z,5.18
2022-10-08T22:09:35.808Z,5.53
2022-10-08T22:11:38.452Z,6.57
2022-10-08T22:13:41.045Z,5.45
2022-10-08T22:15:53.797Z,5.22
2022-10-08T22:17:56.457Z,5.63
2022-10-08T22:19:59.061Z,5.40
2022-10-08T22:22:01.863Z,5.05
2022-10-08T22:24:05.106Z,6.25
2022-10-08T22:26:11.073Z,5.38
2022-10-08T22:28:13.665Z,5.55
2022-10-08T22:30:16.374Z,5.68
2022-10-08T22:32:20.281Z,6.43
2022-10-08T22:34:22.832Z,5.78
2022-10-08T22:36:27.504Z,4.78
2022-10-08T22:38:30.140Z,5.25
2022-10-08T22:40:32.687Z,5.40
2022-10-08T22:42:35.313Z,5.80
2022-10-08T22:44:37.880Z,5.40
2022-10-08T22:46:40.928Z,5.10
2022-10-08T22:48:45.184Z,5.38
2022-10-08T22:50:47.810Z,5.18
2022-10-08T22:52:51.410Z,4.68
2022-10-08T22:54:54.038Z,5.07
2022-10-08T22:56:56.605Z,4.85
2022-10-08T22:58:59.941Z,5.82
2022-10-08T23:01:05.154Z,4.90
2022-10-08T23:03:07.784Z,5.00
2022-10-08T23:05:11.783Z,5.20
2022-10-08T23:07:14.463Z,5.35
2022-10-08T23:09:17.040Z,4.68
2022-10-08T23:11:20.000Z,4.82
2022-10-08T23:13:22.584Z,4.32
2022-10-08T23:15:25.171Z,5.13
2022-10-08T23:17:27.722Z,5.10
2022-10-08T23:19:30.305Z,4.93
2022-10-08T23:21:35.485Z,4.80
2022-10-08T23:23:38.382Z,4.40
2022-10-08T23:25:40.965Z,4.25
2022-10-08T23:27:46.566Z,4.82
2022-10-08T23:29:49.108Z,4.60
2022-10-08T23:31:51.755Z,4.72
2022-10-08T23:33:56.037Z,4.15
2022-10-08T23:35:58.789Z,4.93
2022-10-08T23:38:02.778Z,4.65
2022-10-08T23:40:05.862Z,4.60
2022-10-08T23:42:08.476Z,4.70
2022-10-08T23:44:12.154Z,4.32
2022-10-08T23:46:17.333Z,5.05
2022-10-08T23:48:19.959Z,4.80
2022-10-08T23:50:22.564Z,4.88
2022-10-08T23:52:25.112Z,5.32
2022-10-08T23:54:29.053Z,4.80
2022-10-08T23:56:32.129Z,4.60
2022-10-08T23:58:35.116Z,4.80
